createdAt,value
2023-01-15T00:02:10.328Z,9.28
2023-01-15T00:04:38.893Z,9.28
2023-01-15T00:07:07.685Z,9.25
2023-01-15T00:09:36.201Z,9.23
2023-01-15T00:12:05.208Z,9.30
2023-01-15T00:14:33.786Z,9.37
2023-01-15T00:17:02.264Z,9.45
2023-01-15T00:19:32.500Z,9.49
2023-01-15T00:22:00.978Z,9.57
2023-01-15T00:24:46.844Z,9.55
2023-01-15T00:27:41.501Z,9.54
2023-01-15T00:30:13.008Z,9.55
2023-01-15T00:32:42.118Z,9.55
2023-01-15T00:35:14.833Z,9.56
2023-01-15T00:37:46.420Z,9.55
2023-01-15T00:40:16.397Z,9.53
2023-01-15T00:42:50.384Z,9.58
2023-01-15T00:45:23.328Z,9.65
2023-01-15T00:47:52.142Z,9.59
2023-01-15T00:50:22.435Z,9.59
2023-01-15T00:52:50.881Z,9.60
2023-01-15T00:55:19.458Z,9.65
2023-01-15T00:57:48.292Z,9.56
2023-01-15T01:00:17.217Z,9.53
2023-01-15T01:02:49.406Z,9.55
2023-01-15T01:05:18.080Z,9.51
2023-01-15T01:07:47.996Z,9.53
2023-01-15T01:10:17.098Z,9.60
2023-01-15T01:12:45.864Z,9.63
2023-01-15T01:15:14.656Z,9.60
2023-01-15T01:17:43.191Z,9.62
2023-01-15T01:20:14.643Z,9.66
2023-01-15T01:22:43.946Z,9.62
2023-01-15T01:25:13.975Z,9.60
2023-01-15T01:27:42.862Z,9.56
2023-01-15T01:30:13.096Z,9.57
2023-01-15T01:32:42.107Z,9.58
2023-01-15T01:35:11.238Z,9.64
2023-01-15T01:37:39.832Z,9.66
2023-01-15T01:40:09.113Z,9.57
2023-01-15T01:42:39.073Z,9.66
2023-01-15T01:45:20.414Z,9.59
2023-01-15T01:47:49.440Z,9.60
2023-01-15T01:50:18.312Z,9.58
2023-01-15T01:52:51.232Z,9.56
2023-01-15T01:55:23.339Z,9.60
2023-01-15T01:57:56.334Z,9.62
2023-01-15T02:00:25.526Z,9.65
2023-01-15T02:02:55.429Z,9.68
2023-01-15T02:05:30.534Z,9.68
2023-01-15T02:07:59.508Z,9.66
2023-01-15T02:10:28.479Z,9.56
2023-01-15T02:13:05.410Z,9.64
2023-01-15T02:15:38.273Z,9.69
2023-01-15T02:18:19.085Z,9.64
2023-01-15T02:20:52.305Z,9.68
2023-01-15T02:23:54.740Z,9.68
2023-01-15T02:26:59.052Z,9.66
2023-01-15T02:29:33.762Z,9.69
2023-01-15T02:32:06.424Z,9.65
2023-01-15T02:34:38.356Z,9.62
2023-01-15T02:37:11.607Z,9.62
2023-01-15T02:39:44.900Z,9.50
2023-01-15T02:42:15.687Z,9.46
2023-01-15T02:44:49.083Z,9.47
2023-01-15T02:47:20.549Z,9.50
2023-01-15T02:49:51.536Z,9.51
2023-01-15T02:52:25.701Z,9.56
2023-01-15T02:55:00.164Z,9.56
2023-01-15T02:57:34.644Z,9.60
2023-01-15T03:00:08.260Z,9.57
2023-01-15T03:02:41.557Z,9.58
2023-01-15T03:05:12.906Z,9.57
2023-01-15T03:07:47.828Z,9.54
2023-01-15T03:10:17.111Z,9.53
2023-01-15T03:13:03.878Z,9.56
2023-01-15T03:15:59.904Z,9.52
2023-01-15T03:18:31.744Z,9.51
2023-01-15T03:21:06.332Z,9.51
2023-01-15T03:23:39.043Z,9.49
2023-01-15T03:26:08.176Z,9.48
2023-01-15T03:28:41.470Z,9.46
2023-01-15T03:31:10.023Z,9.57
2023-01-15T03:33:38.651Z,9.56
2023-01-15T03:36:08.111Z,9.55
2023-01-15T03:38:39.318Z,9.57
2023-01-15T03:41:17.231Z,9.57
2023-01-15T03:43:58.170Z,9.52
2023-01-15T03:46:42.006Z,9.60
2023-01-15T03:49:20.552Z,9.64
2023-01-15T03:52:01.289Z,9.56
2023-01-15T03:54:39.764Z,9.64
2023-01-15T03:57:14.281Z,9.62
2023-01-15T03:59:50.479Z,9.58
2023-01-15T04:02:22.253Z,9.56
2023-01-15T04:04:52.299Z,9.66
2023-01-15T04:07:21.474Z,9.65
2023-01-15T04:09:50.442Z,9.61
2023-01-15T04:12:18.858Z,9.59
2023-01-15T04:14:48.803Z,9.63
2023-01-15T04:17:17.280Z,9.60
2023-01-15T04:19:45.751Z,9.61
2023-01-15T04:22:14.204Z,9.58
2023-01-15T04:24:42.797Z,9.67
2023-01-15T04:27:11.292Z,9.68
2023-01-15T04:29:39.799Z,9.65
2023-01-15T04:32:09.790Z,9.71
2023-01-15T04:34:38.412Z,9.67
2023-01-15T04:37:06.950Z,9.65
2023-01-15T04:39:35.434Z,9.63
2023-01-15T04:42:20.973Z,9.64
2023-01-15T04:44:49.439Z,9.58
2023-01-15T04:47:19.337Z,9.46
2023-01-15T04:49:47.768Z,9.54
2023-01-15T04:52:16.816Z,9.47
2023-01-15T04:54:45.469Z,9.43
2023-01-15T04:57:14.065Z,9.40
2023-01-15T04:59:42.932Z,9.37
2023-01-15T05:02:11.487Z,9.31
2023-01-15T05:04:41.439Z,9.38
2023-01-15T05:07:11.063Z,9.46
2023-01-15T05:09:39.531Z,9.51
2023-01-15T05:12:08.188Z,9.48
2023-01-15T05:14:36.696Z,9.46
2023-01-15T05:17:05.234Z,9.44
2023-01-15T05:19:33.734Z,9.50
2023-01-15T05:22:03.605Z,9.47
2023-01-15T05:24:32.016Z,9.50
2023-01-15T05:27:00.836Z,9.42
2023-01-15T05:29:29.317Z,9.38
2023-01-15T05:31:57.843Z,9.48
2023-01-15T05:34:26.254Z,9.49
2023-01-15T05:36:54.705Z,9.42
2023-01-15T05:39:24.844Z,9.46
2023-01-15T05:41:54.270Z,9.42
2023-01-15T05:44:24.810Z,9.42
2023-01-15T05:46:54.929Z,9.42
2023-01-15T05:49:25.635Z,9.45
2023-01-15T05:51:55.977Z,9.50
2023-01-15T05:54:28.460Z,9.52
2023-01-15T05:56:57.675Z,9.44
2023-01-15T05:59:27.501Z,9.51
2023-01-15T06:01:57.102Z,9.54
2023-01-15T06:04:26.164Z,9.47
2023-01-15T06:06:55.937Z,9.49
2023-01-15T06:09:28.167Z,9.51
2023-01-15T06:11:57.281Z,9.49
2023-01-15T06:14:26.264Z,9.43
2023-01-15T06:16:54.856Z,9.43
2023-01-15T06:19:23.437Z,9.48
2023-01-15T06:21:52.026Z,9.46
2023-01-15T06:24:21.072Z,9.46
2023-01-15T06:26:50.984Z,9.41
2023-01-15T06:29:20.716Z,9.29
2023-01-15T06:31:49.713Z,9.37
2023-01-15T06:34:18.781Z,9.35
2023-01-15T06:36:47.255Z,9.39
2023-01-15T06:39:16.589Z,9.37
2023-01-15T06:42:02.137Z,9.34
2023-01-15T06:44:49.256Z,9.16
2023-01-15T06:47:24.086Z,9.24
2023-01-15T06:49:55.455Z,9.15
2023-01-15T06:52:24.441Z,9.17
2023-01-15T06:54:53.518Z,9.20
2023-01-15T06:57:22.627Z,9.20
2023-01-15T06:59:52.997Z,9.26
2023-01-15T07:02:22.141Z,9.17
2023-01-15T07:04:50.951Z,9.22
2023-01-15T07:07:20.758Z,9.33
2023-01-15T07:09:49.450Z,9.31
2023-01-15T07:12:18.776Z,9.35
2023-01-15T07:14:47.452Z,9.39
2023-01-15T07:17:17.595Z,9.30
2023-01-15T07:19:47.797Z,9.36
2023-01-15T07:22:16.505Z,9.40
2023-01-15T07:24:44.997Z,9.49
2023-01-15T07:27:13.487Z,9.51
2023-01-15T07:29:41.982Z,9.52
2023-01-15T07:32:11.257Z,9.59
2023-01-15T07:34:41.382Z,9.59
2023-01-15T07:37:10.069Z,9.58
2023-01-15T07:39:38.588Z,9.62
2023-01-15T07:42:24.247Z,9.70
2023-01-15T07:45:10.014Z,9.89
2023-01-15T07:47:55.894Z,9.90
2023-01-15T07:50:26.543Z,9.93
2023-01-15T07:52:55.825Z,9.96
2023-01-15T07:55:25.699Z,10.01
2023-01-15T07:57:54.868Z,10.08
2023-01-15T08:00:25.729Z,10.15
2023-01-15T08:02:54.186Z,10.20
2023-01-15T08:05:23.081Z,10.21
2023-01-15T08:07:53.103Z,10.29
2023-01-15T08:10:21.688Z,10.28
2023-01-15T08:13:09.132Z,10.22
2023-01-15T08:15:44.141Z,10.23
2023-01-15T08:18:13.208Z,10.20
2023-01-15T08:20:41.977Z,10.14
2023-01-15T08:23:11.967Z,10.12
2023-01-15T08:25:40.466Z,10.03
2023-01-15T08:28:14.818Z,10.10
2023-01-15T08:30:43.348Z,10.02
2023-01-15T08:33:12.364Z,10.06
2023-01-15T08:35:40.846Z,10.04
2023-01-15T08:38:09.541Z,9.98
2023-01-15T08:40:58.910Z,9.98
2023-01-15T08:43:27.937Z,9.93
2023-01-15T08:45:59.439Z,9.95
2023-01-15T08:48:30.393Z,9.88
2023-01-15T08:50:59.496Z,9.89
2023-01-15T08:53:29.919Z,9.79
2023-01-15T08:56:00.055Z,9.85
2023-01-15T08:58:30.156Z,9.72
2023-01-15T09:00:58.909Z,9.73
2023-01-15T09:03:27.996Z,9.63
2023-01-15T09:05:59.623Z,9.63
2023-01-15T09:08:28.301Z,9.69
2023-01-15T09:11:00.757Z,9.83
2023-01-15T09:13:30.400Z,9.88
2023-01-15T09:16:01.233Z,9.92
2023-01-15T09:18:31.772Z,9.98
2023-01-15T09:21:00.361Z,9.97
2023-01-15T09:23:28.966Z,9.98
2023-01-15T09:25:58.620Z,9.95
2023-01-15T09:28:29.510Z,9.90
2023-01-15T09:30:58.034Z,9.90
2023-01-15T09:33:26.698Z,9.74
2023-01-15T09:35:55.288Z,9.84
2023-01-15T09:38:24.021Z,9.82
2023-01-15T09:40:55.887Z,9.91
2023-01-15T09:43:50.059Z,9.98
2023-01-15T09:46:23.097Z,9.95
2023-01-15T09:49:02.027Z,9.88
2023-01-15T09:51:37.499Z,9.89
2023-01-15T09:54:19.166Z,9.99
2023-01-15T09:56:49.918Z,9.99
2023-01-15T09:59:34.817Z,10.00
2023-01-15T10:02:14.518Z,10.02
2023-01-15T10:04:47.410Z,9.93
2023-01-15T10:07:24.583Z,9.98
2023-01-15T10:10:01.145Z,9.83
2023-01-15T10:12:40.183Z,9.73
2023-01-15T10:15:19.937Z,9.80
2023-01-15T10:17:50.531Z,9.76
2023-01-15T10:20:29.115Z,9.78
2023-01-15T10:23:22.516Z,9.88
2023-01-15T10:25:53.291Z,9.77
2023-01-15T10:28:26.954Z,9.70
2023-01-15T10:30:58.409Z,9.62
2023-01-15T10:33:44.467Z,9.57
2023-01-15T10:36:18.450Z,9.61
2023-01-15T10:38:57.352Z,9.55
2023-01-15T10:41:39.699Z,9.49
2023-01-15T10:44:16.505Z,9.48
2023-01-15T10:46:54.858Z,9.40
2023-01-15T10:49:24.010Z,9.40
2023-01-15T10:51:57.544Z,9.38
2023-01-15T10:54:31.253Z,9.40
2023-01-15T10:57:10.349Z,9.47
2023-01-15T10:59:44.063Z,9.51
2023-01-15T11:02:33.103Z,9.51
2023-01-15T11:05:03.462Z,9.57
2023-01-15T11:07:50.088Z,9.56
2023-01-15T11:10:28.123Z,9.47
2023-01-15T11:13:16.159Z,9.36
2023-01-15T11:16:05.157Z,9.38
2023-01-15T11:18:55.349Z,9.34
2023-01-15T11:21:26.566Z,9.31
2023-01-15T11:23:57.921Z,9.29
2023-01-15T11:26:29.184Z,9.29
2023-01-15T11:29:00.111Z,9.29
2023-01-15T11:31:38.395Z,9.27
2023-01-15T11:34:21.629Z,9.29
2023-01-15T11:36:51.120Z,9.30
2023-01-15T11:39:28.027Z,9.31
2023-01-15T11:42:18.547Z,9.27
2023-01-15T11:45:12.608Z,9.24
2023-01-15T11:47:58.439Z,9.31
2023-01-15T11:50:46.623Z,9.33
2023-01-15T11:53:19.838Z,9.37
2023-01-15T11:56:02.279Z,9.38
2023-01-15T11:58:34.909Z,9.37
2023-01-15T12:01:03.661Z,9.38
2023-01-15T12:03:36.399Z,9.45
2023-01-15T12:06:10.444Z,9.50
2023-01-15T12:08:58.374Z,9.54
2023-01-15T12:11:51.768Z,9.63
2023-01-15T12:14:46.149Z,9.70
2023-01-15T12:17:31.308Z,9.78
2023-01-15T12:20:06.706Z,9.86
2023-01-15T12:22:52.633Z,9.85
2023-01-15T12:25:30.970Z,9.86
2023-01-15T12:28:04.114Z,9.74
2023-01-15T12:30:39.547Z,9.72
2023-01-15T12:33:20.427Z,9.71
2023-01-15T12:35:57.287Z,9.67
2023-01-15T12:38:37.668Z,9.68
2023-01-15T12:41:12.987Z,9.58
2023-01-15T12:44:02.009Z,9.68
2023-01-15T12:46:33.300Z,9.59
2023-01-15T12:49:08.992Z,9.56
2023-01-15T12:51:47.302Z,9.50
2023-01-15T12:54:23.302Z,9.50
2023-01-15T12:57:01.750Z,9.46
2023-01-15T12:59:38.715Z,9.42
2023-01-15T13:02:17.157Z,9.31
2023-01-15T13:04:50.803Z,9.04
2023-01-15T13:07:26.881Z,8.71
2023-01-15T13:10:07.238Z,8.51
2023-01-15T13:12:36.095Z,8.23
2023-01-15T13:15:05.423Z,8.21
2023-01-15T13:17:44.872Z,8.13
2023-01-15T13:20:38.182Z,8.00
2023-01-15T13:23:11.923Z,7.97
2023-01-15T13:25:56.966Z,7.93
2023-01-15T13:28:38.131Z,7.72
2023-01-15T13:31:18.929Z,7.52
2023-01-15T13:33:51.507Z,7.58
2023-01-15T13:36:26.373Z,7.44
2023-01-15T13:38:59.199Z,7.36
2023-01-15T13:41:49.743Z,7.22
2023-01-15T13:44:20.814Z,7.18
2023-01-15T13:47:00.712Z,7.18
2023-01-15T13:49:34.636Z,7.29
2023-01-15T13:52:04.817Z,7.19
2023-01-15T13:54:37.745Z,7.24
2023-01-15T13:57:12.233Z,7.26
2023-01-15T13:59:44.732Z,7.21
2023-01-15T14:02:32.166Z,7.26
2023-01-15T14:05:00.922Z,7.21
2023-01-15T14:07:35.589Z,7.16
2023-01-15T14:10:27.410Z,7.21
2023-01-15T14:13:19.034Z,7.20
2023-01-15T14:15:54.652Z,7.14
2023-01-15T14:18:39.413Z,7.22
2023-01-15T14:21:34.980Z,7.18
2023-01-15T14:24:24.969Z,7.15
2023-01-15T14:27:04.283Z,7.11
2023-01-15T14:30:11.656Z,7.18
2023-01-15T14:32:57.379Z,7.20
2023-01-15T14:35:27.990Z,7.17
2023-01-15T14:38:00.818Z,7.25
2023-01-15T14:40:32.317Z,7.16
2023-01-15T14:43:07.180Z,7.23
2023-01-15T14:45:40.236Z,7.23
2023-01-15T14:48:19.906Z,7.17
2023-01-15T14:50:50.249Z,7.07
2023-01-15T14:53:34.572Z,7.16
2023-01-15T14:56:13.224Z,7.17
2023-01-15T14:58:52.515Z,7.15
2023-01-15T15:01:34.259Z,7.11
2023-01-15T15:04:11.664Z,7.20
2023-01-15T15:06:50.072Z,7.24
2023-01-15T15:09:29.781Z,7.20
2023-01-15T15:12:20.878Z,7.31
2023-01-15T15:14:56.356Z,7.33
2023-01-15T15:17:36.788Z,7.33
2023-01-15T15:20:21.458Z,7.38
2023-01-15T15:22:54.681Z,7.58
2023-01-15T15:25:27.369Z,7.58
2023-01-15T15:28:06.920Z,7.53
2023-01-15T15:30:37.545Z,7.59
2023-01-15T15:33:07.996Z,7.44
2023-01-15T15:35:40.609Z,7.54
2023-01-15T15:38:09.065Z,7.54
2023-01-15T15:40:38.650Z,7.49
2023-01-15T15:43:32.573Z,7.46
2023-01-15T15:46:32.870Z,7.45
2023-01-15T15:49:02.948Z,7.39
2023-01-15T15:51:33.946Z,7.33
2023-01-15T15:54:07.098Z,7.09
2023-01-15T15:56:36.685Z,6.93
2023-01-15T15:59:05.813Z,7.02
2023-01-15T16:01:40.014Z,7.02
2023-01-15T16:04:17.991Z,7.04
2023-01-15T16:06:46.682Z,7.04
2023-01-15T16:09:15.108Z,6.95
2023-01-15T16:11:43.850Z,6.94
2023-01-15T16:14:16.065Z,6.85
2023-01-15T16:16:46.305Z,6.95
2023-01-15T16:19:22.838Z,7.00
2023-01-15T16:21:53.341Z,6.99
2023-01-15T16:24:27.691Z,7.06
2023-01-15T16:27:03.868Z,7.09
2023-01-15T16:29:34.966Z,7.08
2023-01-15T16:32:11.530Z,7.10
2023-01-15T16:34:42.010Z,7.09
2023-01-15T16:37:26.805Z,7.05
2023-01-15T16:39:55.493Z,6.98
2023-01-15T16:42:30.879Z,6.93
2023-01-15T16:45:02.520Z,6.89
2023-01-15T16:47:33.283Z,6.85
2023-01-15T16:50:31.588Z,6.88
2023-01-15T16:53:02.372Z,6.68
2023-01-15T16:55:39.114Z,6.75
2023-01-15T16:58:22.648Z,6.71
2023-01-15T17:00:55.916Z,6.69
2023-01-15T17:03:26.203Z,6.67
2023-01-15T17:06:00.227Z,6.63
2023-01-15T17:08:37.182Z,6.75
2023-01-15T17:11:07.921Z,6.77
2023-01-15T17:13:39.086Z,6.79
2023-01-15T17:16:17.868Z,6.68
2023-01-15T17:18:46.883Z,6.79
2023-01-15T17:21:27.891Z,6.76
2023-01-15T17:24:00.154Z,6.78
2023-01-15T17:26:29.002Z,6.75
2023-01-15T17:28:57.692Z,6.77
2023-01-15T17:31:28.746Z,6.84
2023-01-15T17:33:58.499Z,6.82
2023-01-15T17:36:29.436Z,6.80
2023-01-15T17:38:58.240Z,6.81
2023-01-15T17:41:27.613Z,6.79
2023-01-15T17:43:56.204Z,6.81
2023-01-15T17:46:24.769Z,6.86
2023-01-15T17:48:53.174Z,6.88
2023-01-15T17:51:22.097Z,6.88
2023-01-15T17:53:51.970Z,6.90
2023-01-15T17:56:38.176Z,6.90
2023-01-15T17:59:29.414Z,6.81
2023-01-15T18:02:15.353Z,6.92
2023-01-15T18:05:05.030Z,6.98
2023-01-15T18:07:37.756Z,7.00
2023-01-15T18:10:10.140Z,7.01
2023-01-15T18:12:38.799Z,7.00
2023-01-15T18:15:08.732Z,7.00
2023-01-15T18:17:37.396Z,7.01
2023-01-15T18:20:06.861Z,6.96
2023-01-15T18:22:35.714Z,6.99
2023-01-15T18:25:05.660Z,6.98
2023-01-15T18:27:38.313Z,6.96
2023-01-15T18:30:08.443Z,6.93
2023-01-15T18:32:36.958Z,6.90
2023-01-15T18:35:06.341Z,6.86
2023-01-15T18:37:35.307Z,6.82
2023-01-15T18:40:04.376Z,6.83
2023-01-15T18:42:50.198Z,6.82
2023-01-15T18:45:37.567Z,6.82
2023-01-15T18:48:06.310Z,6.78
2023-01-15T18:50:34.793Z,6.88
2023-01-15T18:53:03.299Z,6.88
2023-01-15T18:55:31.986Z,6.85
2023-01-15T18:58:00.567Z,6.79
2023-01-15T19:00:30.507Z,6.77
2023-01-15T19:02:59.159Z,6.76
2023-01-15T19:05:27.660Z,6.67
2023-01-15T19:07:56.177Z,6.72
2023-01-15T19:10:24.757Z,6.72
2023-01-15T19:12:53.344Z,6.74
2023-01-15T19:15:39.093Z,6.73
2023-01-15T19:18:29.807Z,6.76
2023-01-15T19:20:58.399Z,6.73
2023-01-15T19:23:26.820Z,6.74
2023-01-15T19:25:55.277Z,6.70
2023-01-15T19:28:23.864Z,6.71
2023-01-15T19:31:06.189Z,6.80
2023-01-15T19:33:36.906Z,6.76
2023-01-15T19:36:05.975Z,7.02
2023-01-15T19:38:36.039Z,6.92
2023-01-15T19:41:28.066Z,6.94
2023-01-15T19:44:14.066Z,6.77
2023-01-15T19:47:00.045Z,6.83
2023-01-15T19:49:53.303Z,6.79
2023-01-15T19:52:38.076Z,6.71
2023-01-15T19:55:10.828Z,6.64
2023-01-15T19:57:39.595Z,6.72
2023-01-15T20:00:10.265Z,6.69
2023-01-15T20:02:39.335Z,6.67
2023-01-15T20:05:10.988Z,6.64
2023-01-15T20:07:39.670Z,6.66
2023-01-15T20:10:11.099Z,6.69
2023-01-15T20:12:56.589Z,6.61
2023-01-15T20:15:25.401Z,6.70
2023-01-15T20:17:53.913Z,6.74
2023-01-15T20:20:23.804Z,6.78
2023-01-15T20:22:52.704Z,6.80
2023-01-15T20:25:21.320Z,6.80
2023-01-15T20:27:49.863Z,6.80
2023-01-15T20:30:23.007Z,6.82
2023-01-15T20:32:53.238Z,6.78
2023-01-15T20:35:24.999Z,6.67
2023-01-15T20:37:53.883Z,6.61
2023-01-15T20:40:23.805Z,6.54
2023-01-15T20:43:09.874Z,6.53
2023-01-15T20:45:38.887Z,6.55
2023-01-15T20:48:25.351Z,6.57
2023-01-15T20:51:03.969Z,6.54
2023-01-15T20:53:34.813Z,6.45
2023-01-15T20:56:04.538Z,6.45
2023-01-15T20:58:33.191Z,6.40
2023-01-15T21:01:04.639Z,6.35
2023-01-15T21:03:33.303Z,6.35
2023-01-15T21:06:04.930Z,6.31
2023-01-15T21:08:34.009Z,6.32
2023-01-15T21:11:02.491Z,6.26
2023-01-15T21:13:31.362Z,6.26
2023-01-15T21:16:01.923Z,6.09
2023-01-15T21:18:31.556Z,6.13
2023-01-15T21:21:01.939Z,6.11
2023-01-15T21:23:34.748Z,6.09
2023-01-15T21:26:03.332Z,6.12
2023-01-15T21:28:32.461Z,6.09
2023-01-15T21:31:04.310Z,6.10
2023-01-15T21:33:32.820Z,6.04
2023-01-15T21:36:06.085Z,6.03
2023-01-15T21:38:36.265Z,5.98
2023-01-15T21:41:14.980Z,5.98
2023-01-15T21:44:01.589Z,5.94
2023-01-15T21:46:30.394Z,5.93
2023-01-15T21:49:00.511Z,6.03
2023-01-15T21:51:30.785Z,6.16
2023-01-15T21:54:00.836Z,6.09
2023-01-15T21:56:29.608Z,6.00
2023-01-15T21:58:58.499Z,5.98
2023-01-15T22:01:27.083Z,5.95
2023-01-15T22:03:55.678Z,5.89
2023-01-15T22:06:24.276Z,5.80
2023-01-15T22:08:55.518Z,5.81
2023-01-15T22:11:25.847Z,5.77
2023-01-15T22:13:54.228Z,5.73
2023-01-15T22:16:22.754Z,5.69
2023-01-15T22:18:51.240Z,5.61
2023-01-15T22:21:19.724Z,5.63
2023-01-15T22:23:49.290Z,5.57
2023-01-15T22:26:19.380Z,5.58
2023-01-15T22:28:49.940Z,5.50
2023-01-15T22:31:18.451Z,5.46
2023-01-15T22:33:48.071Z,5.37
2023-01-15T22:36:17.375Z,5.39
2023-01-15T22:38:47.193Z,5.37
2023-01-15T22:41:38.338Z,5.38
2023-01-15T22:44:09.261Z,5.35
2023-01-15T22:46:38.701Z,5.32
2023-01-15T22:49:07.207Z,5.26
2023-01-15T22:51:35.757Z,5.24
2023-01-15T22:54:04.958Z,5.16
2023-01-15T22:56:34.008Z,5.20
2023-01-15T22:59:02.541Z,5.21
2023-01-15T23:01:32.614Z,5.23
2023-01-15T23:04:01.676Z,5.22
2023-01-15T23:06:30.310Z,5.22
2023-01-15T23:08:59.214Z,5.03
2023-01-15T23:11:28.270Z,5.14
2023-01-15T23:13:56.777Z,5.12
2023-01-15T23:16:25.453Z,5.03
2023-01-15T23:18:56.060Z,5.06
2023-01-15T23:21:27.777Z,4.96
2023-01-15T23:23:57.192Z,4.96
2023-01-15T23:26:26.504Z,4.96
2023-01-15T23:28:54.900Z,5.01
2023-01-15T23:31:23.960Z,4.97
2023-01-15T23:33:52.670Z,5.02
2023-01-15T23:36:22.805Z,5.01
2023-01-15T23:38:51.313Z,4.96
2023-01-15T23:41:41.186Z,4.93
2023-01-15T23:44:32.399Z,4.92
2023-01-15T23:47:01.366Z,4.86
2023-01-15T23:49:29.903Z,4.89
2023-01-15T23:51:59.903Z,4.83
2023-01-15T23:54:30.236Z,4.87
2023-01-15T23:56:59.792Z,4.83
2023-01-15T23:59:28.290Z,4.73
